Time;durP1;ratioP1;P1;durP2;ratioP2;P2;SDS_P1;SDS_P2;PMS_P1;PMS_P2;Temp;Humidity;BMP_temperature;BMP_pressure;BME280_temperature;BME280_humidity;BME280_pressure;Samples;Min_cycle;Max_cycle;Signal;HPM_P1;HPM_P2
2021/11/26 00:02:38;;;;;;;60.92;35.28;;;;;;;;;;4985130;28;20049;-69
2021/11/26 00:05:24;;;;;;;62.90;35.85;;;;;;;;;;4979819;28;20039;-70
2021/11/26 00:08:09;;;;;;;62.17;35.65;;;;;;;;;;4985496;28;20061;-62
2021/11/26 00:10:55;;;;;;;66.15;36.88;;;;;;;;;;4985708;28;20434;-62
2021/11/26 00:13:45;;;;;;;62.53;35.88;;;;;;;;;;4986964;28;20074;-61
2021/11/26 00:16:36;;;;;;;63.58;35.92;;;;;;;;;;4985386;28;20042;-62
2021/11/26 00:19:21;;;;;;;62.15;37.13;;;;;;;;;;5016822;28;20036;-62
2021/11/26 00:22:07;;;;;;;62.67;36.22;;;;;;;;;;4985275;28;20507;-61
2021/11/26 00:24:53;;;;;;;64.00;36.38;;;;;;;;;;4978572;28;20022;-61
2021/11/26 00:27:38;;;;;;;67.50;36.83;;;;;;;;;;4984791;28;20056;-62
2021/11/26 00:30:24;;;;;;;65.63;37.38;;;;;;;;;;4986270;28;20030;-62
2021/11/26 00:33:09;;;;;;;68.32;38.00;;;;;;;;;;4983068;28;20397;-61
2021/11/26 00:35:54;;;;;;;61.30;35.60;;;;;;;;;;4986065;28;20042;-61
2021/11/26 00:38:40;;;;;;;61.28;36.45;;;;;;;;;;4985179;28;20384;-61
2021/11/26 00:41:25;;;;;;;60.45;35.58;;;;;;;;;;4986220;28;20039;-62
2021/11/26 00:44:10;;;;;;;73.38;38.97;;;;;;;;;;4963498;28;20022;-62
2021/11/26 00:46:56;;;;;;;62.17;34.35;;;;;;;;;;4985735;28;20054;-63
2021/11/26 00:49:41;;;;;;;60.40;35.00;;;;;;;;;;4986209;28;20042;-61
2021/11/26 00:52:26;;;;;;;61.85;35.78;;;;;;;;;;4972491;28;20022;-61
2021/11/26 00:55:12;;;;;;;63.88;35.60;;;;;;;;;;4997679;28;20033;-64
2021/11/26 00:57:57;;;;;;;66.80;37.60;;;;;;;;;;4983621;28;20401;-62
2021/11/26 01:00:43;;;;;;;69.45;38.38;;;;;;;;;;4986213;28;20037;-64
2021/11/26 01:03:28;;;;;;;68.28;34.38;;;;;;;;;;4984776;28;20092;-70
2021/11/26 01:06:13;;;;;;;60.80;35.72;;;;;;;;;;4986448;28;20022;-63
2021/11/26 01:08:59;;;;;;;61.78;35.00;;;;;;;;;;4984530;28;20099;-62
2021/11/26 01:11:44;;;;;;;68.18;36.53;;;;;;;;;;4986020;28;20538;-65
2021/11/26 01:14:29;;;;;;;67.30;35.40;;;;;;;;;;4977262;28;20026;-64
2021/11/26 01:17:14;;;;;;;63.72;36.33;;;;;;;;;;4985335;28;20091;-63
2021/11/26 01:20:00;;;;;;;64.45;37.40;;;;;;;;;;4984847;28;20030;-63
2021/11/26 01:22:45;;;;;;;67.15;36.50;;;;;;;;;;4981447;28;20117;-66
2021/11/26 01:25:31;;;;;;;62.72;34.65;;;;;;;;;;4984900;28;20535;-65
2021/11/26 01:28:16;;;;;;;65.60;35.50;;;;;;;;;;4986061;28;20057;-63
2021/11/26 01:31:02;;;;;;;63.25;35.38;;;;;;;;;;4976690;28;20459;-64
2021/11/26 01:33:47;;;;;;;62.10;36.15;;;;;;;;;;4985999;28;20473;-63
2021/11/26 01:36:33;;;;;;;61.92;33.80;;;;;;;;;;4979541;28;20068;-65
2021/11/26 01:39:18;;;;;;;63.28;35.92;;;;;;;;;;4984231;28;20038;-65
2021/11/26 01:42:04;;;;;;;61.72;37.08;;;;;;;;;;4983849;28;20058;-72
2021/11/26 01:44:49;;;;;;;61.03;35.22;;;;;;;;;;5014886;28;20041;-68
2021/11/26 01:47:35;;;;;;;62.15;36.25;;;;;;;;;;4985708;28;20457;-69
2021/11/26 01:50:22;;;;;;;64.03;36.45;;;;;;;;;;4983649;28;20496;-70
2021/11/26 01:53:07;;;;;;;58.30;34.42;;;;;;;;;;4985241;28;20462;-69
2021/11/26 01:55:53;;;;;;;58.78;34.88;;;;;;;;;;4984704;28;20035;-67
2021/11/26 01:58:38;;;;;;;63.78;37.03;;;;;;;;;;4982039;28;20389;-63
2021/11/26 02:01:24;;;;;;;59.13;34.63;;;;;;;;;;4983257;28;20320;-62
2021/11/26 02:04:09;;;;;;;68.25;38.45;;;;;;;;;;4971775;28;20497;-62
2021/11/26 02:06:54;;;;;;;62.15;34.95;;;;;;;;;;4979115;28;20079;-62
2021/11/26 02:09:40;;;;;;;67.03;36.00;;;;;;;;;;4981299;28;20034;-61
2021/11/26 02:12:25;;;;;;;62.92;34.53;;;;;;;;;;4987714;28;20026;-62
2021/11/26 02:15:15;;;;;;;59.20;34.10;;;;;;;;;;4988735;28;20045;-66
2021/11/26 02:18:00;;;;;;;58.85;35.30;;;;;;;;;;4987627;28;20029;-63
2021/11/26 02:20:46;;;;;;;58.70;35.15;;;;;;;;;;4975040;28;20546;-68
2021/11/26 02:23:31;;;;;;;58.47;32.88;;;;;;;;;;4987480;28;20032;-69
2021/11/26 02:26:17;;;;;;;63.50;35.60;;;;;;;;;;4984158;28;20068;-69
2021/11/26 02:29:02;;;;;;;58.95;34.15;;;;;;;;;;4987268;28;20029;-68
2021/11/26 02:31:48;;;;;;;58.83;33.78;;;;;;;;;;4983226;28;20036;-69
2021/11/26 02:34:33;;;;;;;52.15;31.10;;;;;;;;;;4988608;28;20022;-70
2021/11/26 02:37:18;;;;;;;57.80;35.00;;;;;;;;;;4977778;28;20050;-60
2021/11/26 02:40:04;;;;;;;56.65;33.13;;;;;;;;;;4994988;28;20125;-60
2021/11/26 02:42:50;;;;;;;64.00;37.03;;;;;;;;;;4986517;28;20029;-60
2021/11/26 02:45:36;;;;;;;57.83;32.80;;;;;;;;;;4965922;28;20031;-62
2021/11/26 02:48:21;;;;;;;55.60;32.03;;;;;;;;;;4987388;28;20022;-61
2021/11/26 02:51:07;;;;;;;53.85;32.13;;;;;;;;;;4988212;28;20125;-61
2021/11/26 02:53:52;;;;;;;59.50;34.85;;;;;;;;;;4973161;28;20030;-70
2021/11/26 02:56:37;;;;;;;66.50;35.28;;;;;;;;;;4988295;28;20035;-71
2021/11/26 02:59:22;;;;;;;58.65;33.30;;;;;;;;;;4972245;28;20030;-71
2021/11/26 03:02:08;;;;;;;56.10;33.30;;;;;;;;;;4987605;28;20058;-71
2021/11/26 03:04:53;;;;;;;63.25;32.95;;;;;;;;;;5020449;28;20086;-70
2021/11/26 03:07:40;;;;;;;58.30;34.75;;;;;;;;;;4987399;28;20019;-71
2021/11/26 03:10:25;;;;;;;60.90;33.67;;;;;;;;;;4978412;28;20056;-70
2021/11/26 03:13:11;;;;;;;58.83;34.75;;;;;;;;;;4984667;28;20030;-63
2021/11/26 03:15:56;;;;;;;55.90;32.70;;;;;;;;;;4977285;28;20042;-68
2021/11/26 03:18:42;;;;;;;53.45;31.50;;;;;;;;;;4983213;28;20030;-71
2021/11/26 03:21:27;;;;;;;55.70;33.10;;;;;;;;;;4987428;28;20026;-70
2021/11/26 03:24:12;;;;;;;55.65;32.90;;;;;;;;;;4973068;28;20030;-69
2021/11/26 03:26:57;;;;;;;61.55;36.17;;;;;;;;;;4980346;28;20080;-70
2021/11/26 03:29:43;;;;;;;55.35;33.13;;;;;;;;;;4986443;28;20030;-68
2021/11/26 03:32:28;;;;;;;61.05;35.50;;;;;;;;;;4987360;28;20111;-63
2021/11/26 03:35:14;;;;;;;52.05;32.75;;;;;;;;;;4986341;28;20087;-61
2021/11/26 03:38:00;;;;;;;57.17;33.55;;;;;;;;;;4987202;28;20046;-61
2021/11/26 03:40:46;;;;;;;60.17;34.35;;;;;;;;;;4985687;28;20026;-63
2021/11/26 03:43:31;;;;;;;57.58;35.60;;;;;;;;;;4983409;28;20488;-62
2021/11/26 03:46:16;;;;;;;60.10;34.50;;;;;;;;;;4985231;28;20052;-63
2021/11/26 03:49:02;;;;;;;58.40;33.25;;;;;;;;;;4987516;28;20211;-65
2021/11/26 03:51:47;;;;;;;60.63;35.15;;;;;;;;;;4983960;28;20536;-68
2021/11/26 03:54:34;;;;;;;57.50;32.05;;;;;;;;;;4985839;28;20045;-70
2021/11/26 03:57:19;;;;;;;60.72;33.38;;;;;;;;;;4987178;28;20403;-67
2021/11/26 04:00:06;;;;;;;58.40;34.72;;;;;;;;;;4986138;28;20034;-68
2021/11/26 04:02:51;;;;;;;60.30;33.78;;;;;;;;;;4986913;28;20446;-67
2021/11/26 04:05:36;;;;;;;53.35;30.48;;;;;;;;;;4981792;28;20048;-68
2021/11/26 04:08:21;;;;;;;51.97;31.35;;;;;;;;;;4973113;28;20468;-61
2021/11/26 04:11:07;;;;;;;54.20;32.30;;;;;;;;;;4976974;28;20031;-66
2021/11/26 04:13:53;;;;;;;60.53;35.10;;;;;;;;;;4972610;28;20035;-64
2021/11/26 04:16:38;;;;;;;57.38;33.38;;;;;;;;;;4985750;28;20026;-63
2021/11/26 04:19:23;;;;;;;59.22;34.25;;;;;;;;;;4984449;28;20038;-64
2021/11/26 04:22:08;;;;;;;59.05;34.63;;;;;;;;;;4992623;28;20051;-62
2021/11/26 04:24:54;;;;;;;59.83;34.38;;;;;;;;;;4986911;28;20038;-64
2021/11/26 04:27:39;;;;;;;57.50;34.25;;;;;;;;;;4983531;28;20079;-65
2021/11/26 04:30:25;;;;;;;59.90;33.72;;;;;;;;;;4985992;28;20030;-60
2021/11/26 04:33:10;;;;;;;54.00;32.08;;;;;;;;;;4985441;28;20023;-63
2021/11/26 04:35:56;;;;;;;59.28;32.58;;;;;;;;;;4986696;28;20110;-60
2021/11/26 04:38:41;;;;;;;63.22;34.63;;;;;;;;;;4983112;28;20532;-62
2021/11/26 04:41:27;;;;;;;55.72;31.27;;;;;;;;;;4972316;28;20117;-60
2021/11/26 04:44:12;;;;;;;52.28;30.05;;;;;;;;;;4977860;28;20081;-62
2021/11/26 04:46:57;;;;;;;51.45;31.60;;;;;;;;;;4985382;28;20492;-61
2021/11/26 04:49:42;;;;;;;55.08;32.25;;;;;;;;;;4986093;28;20045;-60
2021/11/26 04:52:28;;;;;;;56.50;31.73;;;;;;;;;;4985640;28;20029;-62
2021/11/26 04:55:14;;;;;;;58.28;34.08;;;;;;;;;;4986354;28;20127;-61
2021/11/26 04:57:59;;;;;;;59.70;34.75;;;;;;;;;;4985438;28;20116;-64
2021/11/26 05:00:44;;;;;;;64.10;34.83;;;;;;;;;;4986176;28;20035;-61
2021/11/26 05:03:29;;;;;;;64.25;35.35;;;;;;;;;;4984512;28;20084;-68
2021/11/26 05:06:15;;;;;;;57.88;33.45;;;;;;;;;;4985407;28;20018;-60
2021/11/26 05:09:00;;;;;;;62.20;34.78;;;;;;;;;;4984871;28;20092;-60
2021/11/26 05:11:46;;;;;;;61.47;35.90;;;;;;;;;;4981149;28;20023;-63
2021/11/26 05:14:32;;;;;;;61.47;35.05;;;;;;;;;;4981874;28;20092;-61
2021/11/26 05:17:17;;;;;;;63.33;36.53;;;;;;;;;;4971506;28;20041;-63
2021/11/26 05:20:03;;;;;;;61.95;35.55;;;;;;;;;;4979155;28;20465;-61
2021/11/26 05:22:48;;;;;;;56.30;34.45;;;;;;;;;;4979299;28;20038;-70
2021/11/26 05:25:34;;;;;;;65.63;35.35;;;;;;;;;;4982714;28;20504;-61
2021/11/26 05:28:19;;;;;;;58.92;34.35;;;;;;;;;;4984482;28;20038;-61
2021/11/26 05:31:04;;;;;;;62.78;35.10;;;;;;;;;;4972240;28;20038;-62
2021/11/26 05:33:49;;;;;;;59.13;35.42;;;;;;;;;;4983479;28;20549;-60
2021/11/26 05:36:35;;;;;;;59.35;36.72;;;;;;;;;;4985167;28;20409;-60
2021/11/26 05:39:20;;;;;;;62.60;35.78;;;;;;;;;;4985041;28;20022;-59
2021/11/26 05:42:06;;;;;;;63.40;36.78;;;;;;;;;;4986185;28;20026;-73
2021/11/26 05:44:51;;;;;;;60.38;35.35;;;;;;;;;;4987185;28;20497;-72
2021/11/26 05:47:36;;;;;;;62.30;34.63;;;;;;;;;;4989241;28;20036;-70
2021/11/26 05:50:22;;;;;;;57.40;33.35;;;;;;;;;;4988558;28;20037;-70
2021/11/26 05:53:08;;;;;;;61.05;35.28;;;;;;;;;;4979233;28;20457;-69
2021/11/26 05:55:53;;;;;;;52.22;33.35;;;;;;;;;;4983669;28;20160;-72
2021/11/26 05:58:38;;;;;;;55.70;32.05;;;;;;;;;;4974297;28;20069;-66
2021/11/26 06:01:24;;;;;;;59.53;33.75;;;;;;;;;;4986241;28;20549;-67
2021/11/26 06:04:09;;;;;;;60.08;33.70;;;;;;;;;;5012429;28;20497;-65
2021/11/26 06:06:54;;;;;;;53.45;31.45;;;;;;;;;;4975122;28;20037;-65
2021/11/26 06:09:39;;;;;;;58.42;32.22;;;;;;;;;;4988009;28;20033;-69
2021/11/26 06:12:25;;;;;;;56.58;30.67;;;;;;;;;;4986137;28;20487;-66
2021/11/26 06:15:10;;;;;;;51.13;29.67;;;;;;;;;;4987391;28;20042;-67
2021/11/26 06:17:55;;;;;;;56.05;31.45;;;;;;;;;;4985638;28;20448;-65
2021/11/26 06:20:41;;;;;;;73.97;45.08;;;;;;;;;;4976863;28;20031;-63
2021/11/26 06:23:26;;;;;;;58.20;35.88;;;;;;;;;;4980279;28;20034;-62
2021/11/26 06:26:11;;;;;;;55.70;31.92;;;;;;;;;;4984463;28;20029;-62
2021/11/26 06:28:57;;;;;;;49.05;29.65;;;;;;;;;;4974863;28;20544;-62
2021/11/26 06:31:42;;;;;;;53.80;30.48;;;;;;;;;;4987477;28;20043;-62
2021/11/26 06:34:28;;;;;;;60.30;31.10;;;;;;;;;;4988354;28;20109;-71
2021/11/26 06:37:13;;;;;;;49.47;28.95;;;;;;;;;;4984751;28;20413;-68
2021/11/26 06:39:58;;;;;;;48.25;29.33;;;;;;;;;;4984565;28;20022;-65
2021/11/26 06:42:44;;;;;;;53.28;30.67;;;;;;;;;;4979386;28;20031;-62
2021/11/26 06:45:29;;;;;;;45.03;27.17;;;;;;;;;;4983895;28;20026;-63
2021/11/26 06:48:14;;;;;;;52.90;32.20;;;;;;;;;;4985738;28;20411;-62
2021/11/26 06:51:00;;;;;;;50.95;28.17;;;;;;;;;;4973696;28;20038;-62
2021/11/26 06:53:45;;;;;;;50.00;27.10;;;;;;;;;;4986917;28;20122;-61
2021/11/26 06:56:30;;;;;;;49.80;28.67;;;;;;;;;;4984599;28;20086;-67
2021/11/26 06:59:15;;;;;;;55.15;32.20;;;;;;;;;;4972345;28;20034;-70
2021/11/26 07:02:01;;;;;;;58.47;30.17;;;;;;;;;;4983923;28;20117;-67
2021/11/26 07:04:47;;;;;;;56.30;30.65;;;;;;;;;;4986167;28;20034;-70
2021/11/26 07:07:33;;;;;;;52.53;29.85;;;;;;;;;;4983899;28;20056;-68
2021/11/26 07:10:18;;;;;;;51.08;28.08;;;;;;;;;;4988926;28;20038;-69
2021/11/26 07:13:03;;;;;;;49.92;30.38;;;;;;;;;;4972334;28;20542;-62
2021/11/26 07:15:48;;;;;;;47.90;29.35;;;;;;;;;;4985246;28;20385;-60
2021/11/26 07:18:34;;;;;;;55.35;31.63;;;;;;;;;;4988248;28;20069;-62
2021/11/26 07:21:19;;;;;;;52.75;30.10;;;;;;;;;;4972800;28;20041;-63
2021/11/26 07:24:04;;;;;;;55.83;31.58;;;;;;;;;;4985202;28;20382;-64
2021/11/26 07:26:49;;;;;;;53.00;30.10;;;;;;;;;;4969746;28;20030;-61
2021/11/26 07:29:35;;;;;;;51.50;29.45;;;;;;;;;;4984370;28;20040;-65
2021/11/26 07:32:21;;;;;;;49.28;30.90;;;;;;;;;;4985736;28;20059;-70
2021/11/26 07:35:07;;;;;;;53.47;29.98;;;;;;;;;;4996935;28;20105;-71
2021/11/26 07:37:52;;;;;;;57.63;31.65;;;;;;;;;;5009766;28;20051;-70
2021/11/26 07:40:37;;;;;;;56.75;31.92;;;;;;;;;;4970949;28;20038;-70
2021/11/26 07:43:23;;;;;;;48.70;27.58;;;;;;;;;;4972276;28;20026;-71
2021/11/26 07:46:08;;;;;;;52.00;30.38;;;;;;;;;;4963268;28;20398;-70
2021/11/26 07:48:53;;;;;;;132.80;77.85;;;;;;;;;;4984720;28;20043;-60
2021/11/26 07:51:38;;;;;;;57.10;33.83;;;;;;;;;;4982765;28;20265;-62
2021/11/26 07:54:24;;;;;;;50.28;28.90;;;;;;;;;;4986113;28;20515;-64
2021/11/26 07:57:11;;;;;;;51.05;28.50;;;;;;;;;;4986860;28;20421;-62
2021/11/26 07:59:56;;;;;;;46.95;28.10;;;;;;;;;;4986321;28;20040;-61
2021/11/26 08:02:41;;;;;;;51.33;29.60;;;;;;;;;;4984573;28;20053;-65
2021/11/26 08:05:28;;;;;;;53.55;30.48;;;;;;;;;;4984601;28;20023;-62
2021/11/26 08:08:13;;;;;;;56.88;32.20;;;;;;;;;;4985351;28;20534;-71
2021/11/26 08:10:58;;;;;;;54.08;30.35;;;;;;;;;;4983978;28;20477;-63
2021/11/26 08:13:44;;;;;;;52.97;30.25;;;;;;;;;;4970763;28;20038;-63
2021/11/26 08:16:29;;;;;;;52.75;29.10;;;;;;;;;;4993555;28;20033;-62
2021/11/26 08:19:14;;;;;;;54.10;30.55;;;;;;;;;;4986043;28;20113;-61
2021/11/26 08:21:59;;;;;;;49.90;29.75;;;;;;;;;;4981630;28;20026;-63
2021/11/26 08:24:45;;;;;;;52.05;31.02;;;;;;;;;;4980953;28;20030;-65
2021/11/26 08:27:30;;;;;;;54.47;32.88;;;;;;;;;;4985347;28;20539;-63
2021/11/26 08:30:15;;;;;;;48.92;29.80;;;;;;;;;;4984363;28;20615;-61
2021/11/26 08:33:01;;;;;;;72.72;43.30;;;;;;;;;;4985210;28;20027;-61
2021/11/26 08:35:48;;;;;;;58.40;33.58;;;;;;;;;;4976456;28;20026;-62
2021/11/26 08:38:34;;;;;;;54.75;30.50;;;;;;;;;;4982560;28;20058;-66
2021/11/26 08:41:19;;;;;;;51.65;29.27;;;;;;;;;;4983816;28;20813;-65
2021/11/26 08:44:05;;;;;;;47.60;28.75;;;;;;;;;;4982077;28;20049;-67
2021/11/26 08:46:50;;;;;;;53.50;30.05;;;;;;;;;;4982767;28;20468;-67
2021/11/26 08:49:35;;;;;;;51.97;30.30;;;;;;;;;;4984059;28;20037;-68
2021/11/26 08:52:21;;;;;;;47.45;27.92;;;;;;;;;;4982905;28;20144;-67
2021/11/26 08:55:11;;;;;;;51.38;30.08;;;;;;;;;;4972098;28;20064;-67
2021/11/26 08:57:58;;;;;;;72.50;42.28;;;;;;;;;;4983242;28;20058;-68
2021/11/26 09:00:44;;;;;;;51.28;31.95;;;;;;;;;;4987184;28;20105;-67
2021/11/26 09:03:33;;;;;;;50.63;29.13;;;;;;;;;;4983155;28;20461;-64
2021/11/26 09:06:19;;;;;;;50.83;29.43;;;;;;;;;;4985424;28;20026;-62
2021/11/26 09:09:05;;;;;;;50.83;27.90;;;;;;;;;;4980856;28;20477;-66
2021/11/26 09:11:51;;;;;;;48.45;28.95;;;;;;;;;;4984148;28;20080;-66
2021/11/26 09:14:36;;;;;;;46.80;28.00;;;;;;;;;;4985270;28;20022;-65
2021/11/26 09:17:21;;;;;;;51.17;29.35;;;;;;;;;;4978218;28;20038;-64
2021/11/26 09:20:07;;;;;;;56.20;32.90;;;;;;;;;;4984206;28;20542;-65
2021/11/26 09:22:53;;;;;;;45.78;28.98;;;;;;;;;;4977729;28;20069;-64
2021/11/26 09:25:38;;;;;;;50.33;30.65;;;;;;;;;;4982258;28;20019;-60
2021/11/26 09:28:23;;;;;;;49.92;30.25;;;;;;;;;;4984534;28;20049;-64
2021/11/26 09:31:09;;;;;;;48.47;29.67;;;;;;;;;;4979406;28;20125;-64
2021/11/26 09:33:56;;;;;;;53.65;30.85;;;;;;;;;;4984017;28;20485;-61
2021/11/26 09:36:41;;;;;;;52.70;31.55;;;;;;;;;;4985959;28;20473;-65
2021/11/26 09:39:27;;;;;;;55.65;32.60;;;;;;;;;;4986616;28;20042;-67
2021/11/26 09:42:12;;;;;;;53.47;31.00;;;;;;;;;;4981016;28;20475;-71
2021/11/26 09:45:00;;;;;;;53.13;30.40;;;;;;;;;;4983314;28;20080;-71
2021/11/26 09:47:45;;;;;;;60.08;34.42;;;;;;;;;;4986745;28;20023;-70
2021/11/26 09:50:32;;;;;;;59.22;35.53;;;;;;;;;;4976244;28;20109;-72
2021/11/26 09:53:18;;;;;;;53.08;31.52;;;;;;;;;;4984477;28;20480;-75
2021/11/26 09:56:05;;;;;;;54.42;31.23;;;;;;;;;;4985359;28;20117;-76
2021/11/26 09:58:50;;;;;;;55.30;31.60;;;;;;;;;;4982077;28;20083;-68
2021/11/26 10:01:35;;;;;;;61.92;31.63;;;;;;;;;;4984093;28;20038;-61
2021/11/26 10:04:21;;;;;;;55.22;30.98;;;;;;;;;;4982501;28;20537;-61
2021/11/26 10:07:07;;;;;;;57.05;32.50;;;;;;;;;;4985537;28;20388;-61
2021/11/26 10:09:54;;;;;;;55.40;32.75;;;;;;;;;;4984411;28;20038;-61
2021/11/26 10:12:40;;;;;;;55.47;31.10;;;;;;;;;;4958723;28;20019;-63
2021/11/26 10:15:33;;;;;;;55.80;31.92;;;;;;;;;;4988391;28;20033;-68
2021/11/26 10:18:20;;;;;;;58.70;32.20;;;;;;;;;;4968241;28;20091;-63
2021/11/26 10:21:13;;;;;;;57.97;31.80;;;;;;;;;;4964890;28;20126;-61
2021/11/26 10:23:58;;;;;;;61.88;34.92;;;;;;;;;;4984010;28;20023;-63
2021/11/26 10:26:54;;;;;;;54.60;31.35;;;;;;;;;;4975747;28;20113;-62
2021/11/26 10:29:39;;;;;;;58.58;32.80;;;;;;;;;;4971502;28;20559;-61
2021/11/26 10:32:24;;;;;;;55.75;32.25;;;;;;;;;;4985844;28;20027;-65
2021/11/26 10:35:11;;;;;;;58.05;32.03;;;;;;;;;;4987106;28;20026;-66
2021/11/26 10:37:57;;;;;;;54.92;31.70;;;;;;;;;;4987046;28;20137;-68
2021/11/26 10:40:45;;;;;;;54.35;32.85;;;;;;;;;;4984905;28;20030;-69
2021/11/26 10:43:56;;;;;;;53.65;32.33;;;;;;;;;;4984848;28;20128;-65
2021/11/26 10:46:48;;;;;;;54.22;32.40;;;;;;;;;;4985466;28;20037;-67
2021/11/26 10:50:01;;;;;;;55.35;31.25;;;;;;;;;;4983287;28;20100;-67
2021/11/26 10:58:50;;;;;;;59.83;34.33;;;;;;;;;;4987615;28;20046;-65
2021/11/26 11:01:45;;;;;;;56.75;31.38;;;;;;;;;;4986904;28;20397;-63
2021/11/26 11:04:31;;;;;;;51.60;29.77;;;;;;;;;;5009404;28;20032;-63
2021/11/26 11:07:18;;;;;;;52.97;32.22;;;;;;;;;;4990161;28;20034;-66
2021/11/26 11:10:03;;;;;;;57.47;33.53;;;;;;;;;;4987451;28;20030;-61
2021/11/26 11:12:48;;;;;;;52.58;31.00;;;;;;;;;;4986141;28;20026;-64
2021/11/26 11:15:34;;;;;;;58.47;32.03;;;;;;;;;;4987746;28;20034;-73
2021/11/26 11:18:19;;;;;;;55.05;30.52;;;;;;;;;;4984993;28;20031;-72
2021/11/26 11:21:06;;;;;;;54.38;31.05;;;;;;;;;;4987412;28;20042;-74
2021/11/26 11:23:51;;;;;;;54.83;28.98;;;;;;;;;;4986916;28;20026;-70
2021/11/26 11:26:40;;;;;;;48.97;28.83;;;;;;;;;;4987350;28;20113;-72
2021/11/26 11:29:27;;;;;;;54.70;31.00;;;;;;;;;;4985580;28;20109;-74
2021/11/26 11:32:12;;;;;;;49.25;28.13;;;;;;;;;;4986830;28;20030;-68
2021/11/26 11:34:57;;;;;;;49.33;28.40;;;;;;;;;;4987554;28;20050;-68
2021/11/26 11:37:43;;;;;;;49.90;28.08;;;;;;;;;;4986044;28;20066;-67
2021/11/26 11:40:30;;;;;;;51.05;28.10;;;;;;;;;;5002807;28;20072;-68
2021/11/26 11:43:24;;;;;;;55.78;28.80;;;;;;;;;;4986540;28;20034;-71
2021/11/26 11:46:12;;;;;;;49.85;30.13;;;;;;;;;;4991508;28;20423;-72
2021/11/26 11:48:57;;;;;;;46.63;27.13;;;;;;;;;;4985278;28;20123;-66
2021/11/26 11:51:46;;;;;;;48.67;27.90;;;;;;;;;;4986096;28;20062;-69
2021/11/26 11:54:42;;;;;;;46.72;27.33;;;;;;;;;;5012285;28;20052;-72
2021/11/26 11:57:28;;;;;;;47.47;26.15;;;;;;;;;;4978339;28;20046;-69
2021/11/26 12:00:16;;;;;;;40.67;24.33;;;;;;;;;;4985360;28;20026;-70
2021/11/26 12:03:07;;;;;;;46.22;28.27;;;;;;;;;;4984269;28;20038;-70
2021/11/26 12:06:03;;;;;;;43.08;25.52;;;;;;;;;;4983010;28;20041;-67
2021/11/26 12:08:52;;;;;;;43.10;24.40;;;;;;;;;;4983810;28;20034;-63
2021/11/26 12:11:39;;;;;;;45.50;26.35;;;;;;;;;;4983162;28;20037;-61
2021/11/26 12:14:24;;;;;;;44.50;25.83;;;;;;;;;;4983174;28;20509;-62
2021/11/26 12:17:16;;;;;;;45.83;25.25;;;;;;;;;;4986998;28;20075;-64
2021/11/26 12:20:10;;;;;;;48.08;26.90;;;;;;;;;;4977009;28;20106;-65
2021/11/26 12:23:06;;;;;;;47.42;26.35;;;;;;;;;;4979946;28;20377;-62
2021/11/26 12:26:21;;;;;;;47.17;25.67;;;;;;;;;;4981975;28;20129;-60
2021/11/26 12:29:11;;;;;;;46.70;25.92;;;;;;;;;;4985802;28;20119;-65
2021/11/26 12:32:04;;;;;;;48.63;25.23;;;;;;;;;;4985005;28;20026;-62
2021/11/26 12:34:51;;;;;;;47.15;27.25;;;;;;;;;;4984909;28;20034;-65
2021/11/26 12:37:36;;;;;;;48.42;25.13;;;;;;;;;;4986509;28;20095;-61
2021/11/26 12:40:24;;;;;;;47.13;27.23;;;;;;;;;;4984745;28;20023;-62
2021/11/26 12:43:09;;;;;;;48.33;25.30;;;;;;;;;;4983514;28;20026;-62
2021/11/26 12:45:54;;;;;;;47.63;26.23;;;;;;;;;;4985180;28;20034;-62
2021/11/26 12:48:45;;;;;;;47.78;26.10;;;;;;;;;;4986226;28;20193;-64
2021/11/26 12:51:34;;;;;;;44.92;24.42;;;;;;;;;;4984091;28;20527;-61
2021/11/26 12:54:24;;;;;;;49.60;27.92;;;;;;;;;;4985563;28;20461;-64
2021/11/26 12:57:17;;;;;;;42.65;26.15;;;;;;;;;;4983924;28;20038;-60
2021/11/26 13:00:02;;;;;;;47.88;27.63;;;;;;;;;;4986044;28;20062;-61
2021/11/26 13:02:48;;;;;;;50.33;26.80;;;;;;;;;;4984451;28;20050;-68
2021/11/26 13:05:33;;;;;;;48.38;26.50;;;;;;;;;;4992639;28;20099;-62
2021/11/26 13:08:18;;;;;;;44.22;26.20;;;;;;;;;;5000820;28;20109;-61
2021/11/26 13:11:04;;;;;;;46.72;26.52;;;;;;;;;;4981338;28;20109;-64
2021/11/26 13:13:49;;;;;;;53.22;28.40;;;;;;;;;;4985462;28;20385;-65
2021/11/26 13:16:35;;;;;;;47.65;23.88;;;;;;;;;;4985337;28;20047;-65
2021/11/26 13:19:21;;;;;;;42.42;23.33;;;;;;;;;;4983409;28;20065;-65
2021/11/26 13:22:06;;;;;;;42.70;23.92;;;;;;;;;;4984247;28;20022;-63
2021/11/26 13:24:51;;;;;;;41.38;22.75;;;;;;;;;;4978195;28;20474;-72
2021/11/26 13:27:44;;;;;;;37.97;22.90;;;;;;;;;;4957241;28;20105;-72
2021/11/26 13:30:49;;;;;;;37.50;21.50;;;;;;;;;;4981356;28;20070;-71
2021/11/26 13:33:36;;;;;;;39.33;22.48;;;;;;;;;;4971622;28;20019;-74
2021/11/26 13:36:24;;;;;;;41.28;21.77;;;;;;;;;;4984303;28;20500;-71
2021/11/26 13:39:11;;;;;;;36.78;20.63;;;;;;;;;;4983866;28;20550;-62
2021/11/26 13:41:56;;;;;;;34.33;20.75;;;;;;;;;;4985290;28;20431;-69
2021/11/26 13:44:42;;;;;;;37.60;21.25;;;;;;;;;;4975039;28;20109;-72
2021/11/26 13:47:27;;;;;;;40.53;21.23;;;;;;;;;;4984211;28;20443;-70
2021/11/26 13:50:12;;;;;;;32.35;18.80;;;;;;;;;;4970723;28;20034;-68
2021/11/26 13:52:58;;;;;;;31.48;18.85;;;;;;;;;;4971097;28;20056;-68
2021/11/26 13:55:43;;;;;;;36.22;18.02;;;;;;;;;;4985778;28;20153;-72
2021/11/26 13:58:30;;;;;;;31.95;18.77;;;;;;;;;;4978859;28;20542;-63
2021/11/26 14:01:21;;;;;;;33.10;18.73;;;;;;;;;;4981634;28;20066;-66
2021/11/26 14:04:08;;;;;;;31.48;18.48;;;;;;;;;;4979754;28;20026;-66
2021/11/26 14:06:56;;;;;;;34.17;18.30;;;;;;;;;;4986524;28;20280;-65
2021/11/26 14:09:47;;;;;;;33.92;18.63;;;;;;;;;;4987744;28;20362;-65
2021/11/26 14:12:32;;;;;;;32.47;18.75;;;;;;;;;;4975220;28;20483;-64
2021/11/26 14:15:21;;;;;;;32.15;18.70;;;;;;;;;;4987326;28;20492;-63
2021/11/26 14:18:11;;;;;;;30.88;17.00;;;;;;;;;;4983797;28;20161;-61
2021/11/26 14:21:04;;;;;;;27.83;16.13;;;;;;;;;;4987886;28;20031;-62
2021/11/26 14:24:00;;;;;;;24.25;13.68;;;;;;;;;;5040296;28;20494;-62
2021/11/26 14:26:51;;;;;;;26.02;14.65;;;;;;;;;;4979492;28;20061;-64
2021/11/26 14:29:47;;;;;;;23.85;14.25;;;;;;;;;;4987563;28;20061;-63
2021/11/26 14:32:33;;;;;;;25.10;15.88;;;;;;;;;;4988840;28;20105;-64
2021/11/26 14:35:20;;;;;;;26.17;15.85;;;;;;;;;;4986498;28;20094;-66
2021/11/26 14:38:07;;;;;;;28.63;15.15;;;;;;;;;;4988409;28;20520;-65
2021/11/26 14:41:00;;;;;;;26.42;15.15;;;;;;;;;;4987203;28;20026;-65
2021/11/26 14:43:46;;;;;;;25.60;14.90;;;;;;;;;;4988043;28;20505;-66
2021/11/26 14:46:31;;;;;;;21.63;12.75;;;;;;;;;;4986556;28;20483;-66
2021/11/26 14:49:17;;;;;;;20.02;12.02;;;;;;;;;;4974253;28;20030;-67
2021/11/26 14:52:05;;;;;;;18.70;11.77;;;;;;;;;;4987349;28;20062;-63
2021/11/26 14:54:50;;;;;;;18.63;10.18;;;;;;;;;;4988135;28;20038;-64
2021/11/26 14:57:36;;;;;;;18.65;11.43;;;;;;;;;;4984082;28;20477;-64
2021/11/26 15:00:21;;;;;;;17.52;10.30;;;;;;;;;;4973642;28;20073;-64
2021/11/26 15:03:06;;;;;;;15.40;8.95;;;;;;;;;;4987836;28;20034;-65
2021/11/26 15:05:51;;;;;;;14.10;8.25;;;;;;;;;;4986630;28;20551;-67
2021/11/26 15:08:37;;;;;;;13.57;8.00;;;;;;;;;;4988343;28;20444;-63
2021/11/26 15:11:23;;;;;;;17.52;8.70;;;;;;;;;;4986906;28;20030;-68
2021/11/26 15:14:09;;;;;;;13.93;7.93;;;;;;;;;;4986352;28;20117;-70
2021/11/26 15:16:54;;;;;;;17.23;9.55;;;;;;;;;;4985494;28;20352;-71
2021/11/26 15:19:39;;;;;;;16.70;8.68;;;;;;;;;;4982574;28;20034;-72
2021/11/26 15:22:24;;;;;;;14.23;8.85;;;;;;;;;;4985550;28;20080;-73
2021/11/26 15:25:10;;;;;;;16.83;9.15;;;;;;;;;;4978706;28;20035;-73
2021/11/26 15:27:55;;;;;;;18.38;8.50;;;;;;;;;;4986561;28;20023;-69
2021/11/26 15:30:40;;;;;;;15.85;9.10;;;;;;;;;;4974243;28;20037;-67
2021/11/26 15:33:26;;;;;;;17.45;8.48;;;;;;;;;;4983443;28;20481;-64
2021/11/26 15:36:11;;;;;;;16.30;9.00;;;;;;;;;;5006058;28;20032;-63
2021/11/26 15:38:58;;;;;;;27.42;17.58;;;;;;;;;;4986495;28;20055;-62
2021/11/26 15:41:48;;;;;;;15.18;9.13;;;;;;;;;;4979995;28;20084;-62
2021/11/26 15:44:33;;;;;;;17.15;9.45;;;;;;;;;;4993730;28;20026;-63
2021/11/26 15:47:18;;;;;;;13.70;8.20;;;;;;;;;;5007907;28;20042;-69
2021/11/26 15:50:04;;;;;;;17.02;9.25;;;;;;;;;;4980654;28;20595;-68
2021/11/26 15:52:50;;;;;;;16.20;8.60;;;;;;;;;;4999068;28;20038;-69
2021/11/26 15:55:35;;;;;;;16.77;8.80;;;;;;;;;;4986369;28;20474;-64
2021/11/26 15:58:20;;;;;;;18.10;10.50;;;;;;;;;;4986514;28;20041;-68
2021/11/26 16:01:05;;;;;;;16.95;8.95;;;;;;;;;;4987133;28;20288;-66
2021/11/26 16:03:55;;;;;;;15.73;8.65;;;;;;;;;;4985836;28;20072;-66
2021/11/26 16:06:41;;;;;;;17.52;9.93;;;;;;;;;;4979465;28;20454;-61
2021/11/26 16:09:26;;;;;;;21.35;12.45;;;;;;;;;;4981805;28;20060;-72
2021/11/26 16:12:11;;;;;;;17.27;9.85;;;;;;;;;;5014068;28;20057;-72
2021/11/26 16:14:57;;;;;;;14.57;8.55;;;;;;;;;;4991944;28;20409;-71
2021/11/26 16:17:43;;;;;;;15.93;8.40;;;;;;;;;;4966092;28;20049;-74